Time;durP1;ratioP1;P1;durP2;ratioP2;P2;SDS_P1;SDS_P2;PMS_P1;PMS_P2;Temp;Humidity;BMP_temperature;BMP_pressure;BME280_temperature;BME280_humidity;BME280_pressure;Samples;Min_cycle;Max_cycle;Signal;HPM_P1;HPM_P2
2024/02/14 00:04:07;;;;;;;24.20;12.70;;;;;;;4.73;92.19;100759.25;681832;1261;139618;-79
2024/02/14 00:19:12;;;;;;;42.00;19.70;;;;;;;4.50;91.56;100769.52;681670;1263;139057;-79
2024/02/14 00:34:15;;;;;;;22.50;13.00;;;;;;;4.01;92.52;100785.45;681787;1263;139594;-79
2024/02/14 00:49:19;;;;;;;31.60;14.60;;;;;;;3.88;93.44;100786.44;681798;1260;140322;-79
2024/02/14 01:04:22;;;;;;;25.00;13.30;;;;;;;4.19;92.44;100798.36;681907;1259;138672;-80
2024/02/14 01:19:28;;;;;;;40.00;17.30;;;;;;;3.75;93.72;100793.70;681831;1264;139454;-79
2024/02/14 01:34:32;;;;;;;35.40;16.10;;;;;;;3.28;94.00;100795.87;681991;1263;140357;-80
2024/02/14 01:49:36;;;;;;;32.00;14.80;;;;;;;3.10;94.59;100794.34;681898;1264;139219;-80
2024/02/14 02:04:40;;;;;;;43.60;21.00;;;;;;;3.19;93.43;100796.83;681969;1262;139747;-80
2024/02/14 02:19:43;;;;;;;34.20;14.20;;;;;;;3.03;92.14;100796.41;681769;1266;139502;-80
2024/02/14 02:34:47;;;;;;;34.90;15.20;;;;;;;2.83;92.75;100800.09;681970;1260;138958;-80
2024/02/14 02:49:52;;;;;;;31.40;15.20;;;;;;;2.74;92.59;100811.09;681803;1264;139720;-79
2024/02/14 03:04:55;;;;;;;45.40;19.20;;;;;;;2.62;92.90;100808.36;682034;1262;140618;-79
2024/02/14 03:19:58;;;;;;;31.70;15.10;;;;;;;2.65;93.78;100813.88;681914;1264;139864;-80
2024/02/14 03:35:04;;;;;;;40.90;18.90;;;;;;;2.77;92.78;100823.02;681837;1264;139239;-81
2024/02/14 03:50:08;;;;;;;45.10;19.50;;;;;;;2.92;92.66;100819.20;681910;1261;139262;-81
2024/02/14 04:05:12;;;;;;;99.00;33.50;;;;;;;2.76;92.64;100831.36;681904;1263;139884;-80
2024/02/14 04:20:16;;;;;;;58.10;25.80;;;;;;;2.95;93.36;100837.40;681817;1260;140808;-79
2024/02/14 04:35:22;;;;;;;44.30;19.40;;;;;;;3.00;94.02;100834.21;681922;1262;139285;-81
2024/02/14 04:50:25;;;;;;;68.70;31.80;;;;;;;3.05;96.21;100840.70;681875;1265;139258;-80
2024/02/14 05:05:30;;;;;;;75.70;33.10;;;;;;;3.14;96.25;100840.65;681822;1266;138594;-80
2024/02/14 05:20:33;;;;;;;78.80;34.70;;;;;;;3.10;97.03;100848.96;681783;1265;139028;-80
2024/02/14 05:35:37;;;;;;;92.50;50.00;;;;;;;2.99;97.41;100863.98;681867;1274;139287;-82
2024/02/14 05:50:40;;;;;;;42.20;20.80;;;;;;;3.09;98.07;100857.11;681850;1264;140076;-80
2024/02/14 06:05:45;;;;;;;216.40;71.50;;;;;;;3.34;99.04;100860.06;681876;1263;139697;-79
2024/02/14 06:20:51;;;;;;;57.00;24.60;;;;;;;3.36;98.63;100869.52;681815;1262;140032;-80
2024/02/14 06:35:56;;;;;;;64.80;27.70;;;;;;;3.72;98.01;100882.62;681837;1264;138758;-80
2024/02/14 06:51:00;;;;;;;56.40;27.50;;;;;;;3.73;99.22;100891.04;681834;1263;140151;-80
2024/02/14 07:06:05;;;;;;;101.70;53.60;;;;;;;4.19;98.28;100896.52;681930;1265;141912;-81
2024/02/14 07:21:11;;;;;;;57.80;30.30;;;;;;;4.32;98.64;100901.58;681677;1263;139590;-81
2024/02/14 07:36:17;;;;;;;73.30;29.60;;;;;;;4.91;96.72;100903.29;681836;1263;138734;-81
2024/02/14 07:51:22;;;;;;;64.50;31.00;;;;;;;5.38;94.81;100902.83;681694;1260;139900;-81
2024/02/14 08:06:27;;;;;;;83.20;46.00;;;;;;;6.19;94.18;100899.89;681774;1264;139349;-79
2024/02/14 08:21:31;;;;;;;128.40;40.50;;;;;;;6.44;93.50;100900.88;681723;1263;139981;-80
2024/02/14 08:36:41;;;;;;;53.20;27.20;;;;;;;6.97;93.62;100900.52;681748;1260;139888;-81
2024/02/14 08:51:47;;;;;;;62.90;33.60;;;;;;;8.75;93.01;100902.34;681526;1261;139458;-79
2024/02/14 09:06:51;;;;;;;58.90;30.20;;;;;;;10.26;87.96;100900.73;681590;1265;139802;-80
2024/02/14 09:21:56;;;;;;;42.30;24.10;;;;;;;12.13;83.17;100909.66;681508;1265;139471;-80
2024/02/14 09:37:00;;;;;;;53.50;28.80;;;;;;;15.14;74.01;100903.38;681386;1261;139926;-81
2024/02/14 09:52:06;;;;;;;28.10;16.90;;;;;;;15.44;68.17;100902.17;681308;1260;138700;-82
2024/02/14 10:07:11;;;;;;;22.00;12.40;;;;;;;15.57;63.43;100905.87;681490;1261;138484;-83
2024/02/14 10:22:14;;;;;;;25.80;14.20;;;;;;;13.99;60.43;100907.65;681326;1265;140052;-80
2024/02/14 10:37:21;;;;;;;43.10;23.30;;;;;;;13.11;61.00;100912.60;681510;1275;138484;-81
2024/02/14 10:52:33;;;;;;;24.80;13.80;;;;;;;12.69;61.24;100903.44;681363;1276;138453;-82
2024/02/14 11:07:38;;;;;;;26.50;19.10;;;;;;;13.14;61.68;100896.72;681606;1266;138816;-80
2024/02/14 11:23:11;;;;;;;31.30;14.20;;;;;;;12.08;61.65;100892.27;681461;1265;181214;-81
2024/02/14 11:38:16;;;;;;;27.80;20.10;;;;;;;12.10;62.71;100884.97;681303;1261;138548;-82
2024/02/14 11:53:21;;;;;;;35.60;21.10;;;;;;;13.54;61.94;100870.11;681472;1267;138312;-82
2024/02/14 12:08:25;;;;;;;25.90;16.10;;;;;;;13.27;61.20;100860.02;681384;1267;139059;-81
2024/02/14 12:23:32;;;;;;;27.90;15.70;;;;;;;13.09;61.35;100846.74;681699;1262;139503;-82
2024/02/14 12:38:38;;;;;;;23.10;19.30;;;;;;;13.05;60.20;100840.59;681441;1266;138674;-81
2024/02/14 12:53:42;;;;;;;20.60;13.70;;;;;;;12.54;60.15;100829.11;681637;1276;138973;-83
2024/02/14 13:08:47;;;;;;;25.60;14.70;;;;;;;12.35;60.29;100829.19;681462;1264;139049;-82
2024/02/14 13:23:52;;;;;;;24.40;18.60;;;;;;;12.22;61.18;100826.77;681599;1262;140938;-82
2024/02/14 13:38:57;;;;;;;23.90;16.70;;;;;;;12.06;61.56;100824.30;681436;1265;139018;-81
2024/02/14 13:54:03;;;;;;;23.70;16.90;;;;;;;11.69;61.96;100830.36;681562;1261;139457;-80
2024/02/14 14:09:08;;;;;;;27.20;19.60;;;;;;;11.95;62.27;100822.89;681522;1262;139418;-81
2024/02/14 14:24:23;;;;;;;27.60;21.70;;;;;;;11.94;61.99;100824.83;681494;1267;138965;-79
2024/02/14 14:39:28;;;;;;;23.40;16.40;;;;;;;11.73;62.64;100821.65;681540;1260;140121;-82
2024/02/14 14:54:33;;;;;;;102.10;64.80;;;;;;;11.52;63.22;100808.80;681622;1261;139145;-81
2024/02/14 15:09:39;;;;;;;21.40;12.00;;;;;;;11.34;64.58;100801.89;681352;1261;139831;-82
2024/02/14 15:24:44;;;;;;;61.00;37.70;;;;;;;11.13;65.43;100803.11;681568;1261;138839;-82
2024/02/14 15:39:48;;;;;;;127.60;45.60;;;;;;;10.99;65.90;100805.52;681431;1261;140240;-81
2024/02/14 15:54:54;;;;;;;73.70;36.10;;;;;;;10.77;66.77;100818.13;681497;1265;139959;-81
2024/02/14 16:10:00;;;;;;;37.70;19.40;;;;;;;10.62;66.95;100821.35;681244;1265;139933;-80
2024/02/14 16:25:09;;;;;;;44.70;22.20;;;;;;;10.47;67.02;100819.95;681193;1261;138934;-80
2024/02/14 16:40:14;;;;;;;;;;;;;;;10.35;67.77;100814.94;681335;1261;139275;-80
2024/02/14 16:55:21;;;;;;;95.80;34.50;;;;;;;10.05;68.81;100823.73;681389;1265;126203;-82
2024/02/14 17:10:25;;;;;;;;;;;;;;;10.03;69.44;100829.61;681323;1260;139039;-80
2024/02/14 17:25:34;;;;;;;47.60;22.70;;;;;;;9.99;70.38;100830.95;681579;1266;125123;-81
2024/02/14 17:40:40;;;;;;;42.70;19.30;;;;;;;9.88;70.86;100829.59;681422;1265;140337;-80
2024/02/14 17:55:44;;;;;;;105.60;38.90;;;;;;;9.80;71.51;100831.36;681167;1265;138976;-81
2024/02/14 18:10:53;;;;;;;99.20;49.80;;;;;;;9.71;72.41;100828.17;681544;1265;139093;-80
2024/02/14 18:25:58;;;;;;;169.10;66.20;;;;;;;9.59;72.93;100818.60;681354;1265;140219;-81
2024/02/14 18:41:02;;;;;;;91.00;36.00;;;;;;;9.65;73.40;100815.05;681468;1266;140032;-80
2024/02/14 18:56:07;;;;;;;74.10;29.80;;;;;;;9.66;73.38;100822.64;681155;1265;138639;-82
2024/02/14 19:11:10;;;;;;;59.00;26.20;;;;;;;9.70;73.07;100832.81;681318;1275;138643;-83
2024/02/14 19:26:15;;;;;;;47.30;23.70;;;;;;;9.71;73.36;100824.17;681434;1266;138686;-81
2024/02/14 19:41:18;;;;;;;80.10;43.10;;;;;;;9.70;73.31;100815.02;681543;1265;138995;-80
2024/02/14 19:56:22;;;;;;;51.60;25.00;;;;;;;9.63;73.22;100807.98;681357;1265;139937;-80
2024/02/14 20:11:26;;;;;;;53.30;25.30;;;;;;;9.60;73.37;100816.82;681374;1266;138510;-81
2024/02/14 20:26:33;;;;;;;54.50;27.70;;;;;;;9.60;73.41;100805.48;681028;1264;139641;-80
2024/02/14 20:41:38;;;;;;;;;;;;;;;9.64;72.78;100805.85;681273;1265;138695;-81
2024/02/14 20:56:42;;;;;;;72.70;28.50;;;;;;;9.57;72.82;100793.83;681215;1265;125564;-81
2024/02/14 21:11:46;;;;;;;44.50;19.20;;;;;;;9.51;72.90;100785.67;681225;1267;138990;-80
2024/02/14 21:26:51;;;;;;;55.90;20.80;;;;;;;9.49;73.03;100772.05;681226;1265;139663;-81
2024/02/14 21:41:56;;;;;;;78.50;29.40;;;;;;;9.47;72.70;100776.91;681320;1265;139214;-80
2024/02/14 21:57:00;;;;;;;49.70;21.90;;;;;;;9.63;72.82;100778.33;681182;1265;138797;-81
2024/02/14 22:12:09;;;;;;;47.20;21.40;;;;;;;9.53;73.40;100778.07;681436;1267;138936;-81
2024/02/14 22:27:14;;;;;;;39.30;19.80;;;;;;;9.49;73.20;100767.02;681356;1266;139102;-81
2024/02/14 22:42:18;;;;;;;36.60;18.70;;;;;;;9.42;73.19;100763.29;681298;1274;138561;-80
2024/02/14 22:57:21;;;;;;;42.40;20.80;;;;;;;9.42;73.46;100762.14;681337;1261;139941;-80
2024/02/14 23:12:25;;;;;;;40.60;19.90;;;;;;;9.38;73.09;100767.12;681538;1267;140651;-81
2024/02/14 23:27:29;;;;;;;32.80;17.90;;;;;;;9.42;72.60;100763.16;681201;1269;183865;-81
2024/02/14 23:42:32;;;;;;;37.60;17.60;;;;;;;9.41;72.77;100754.16;681483;1267;139540;-82
2024/02/14 23:57:36;;;;;;;37.20;19.50;;;;;;;9.31;72.54;100749.45;681446;1276;139461;-80
